sensor_id;sensor_type;location;lat;lon;timestamp;temperature;humidity
7317;DHT22;3699;51.462;6.696;2022-07-18T00:01:13;17.60;99.90
7317;DHT22;3699;51.462;6.696;2022-07-18T00:03:40;17.60;99.90
7317;DHT22;3699;51.462;6.696;2022-07-18T00:06:08;17.60;99.90
7317;DHT22;3699;51.462;6.696;2022-07-18T00:08:35;17.60;99.90
7317;DHT22;3699;51.462;6.696;2022-07-18T00:11:02;17.50;99.90
7317;DHT22;3699;51.462;6.696;2022-07-18T00:13:29;17.40;99.90
7317;DHT22;3699;51.462;6.696;2022-07-18T00:15:55;17.50;99.90
7317;DHT22;3699;51.462;6.696;2022-07-18T00:18:22;17.40;99.90
7317;DHT22;3699;51.462;6.696;2022-07-18T00:20:56;17.40;99.90
7317;DHT22;3699;51.462;6.696;2022-07-18T00:23:25;17.30;99.90
7317;DHT22;3699;51.462;6.696;2022-07-18T00:25:51;17.30;99.90
7317;DHT22;3699;51.462;6.696;2022-07-18T00:28:18;17.30;99.90
7317;DHT22;3699;51.462;6.696;2022-07-18T00:30:45;17.30;99.90
7317;DHT22;3699;51.462;6.696;2022-07-18T00:33:12;17.20;99.90
7317;DHT22;3699;51.462;6.696;2022-07-18T00:35:39;17.20;99.90
7317;DHT22;3699;51.462;6.696;2022-07-18T00:38:06;17.10;99.90
7317;DHT22;3699;51.462;6.696;2022-07-18T00:40:34;17.20;99.90
7317;DHT22;3699;51.462;6.696;2022-07-18T00:43:01;17.10;99.90
7317;DHT22;3699;51.462;6.696;2022-07-18T00:45:28;17.10;99.90
7317;DHT22;3699;51.462;6.696;2022-07-18T00:47:55;17.10;99.90
7317;DHT22;3699;51.462;6.696;2022-07-18T00:50:23;17.10;99.90
7317;DHT22;3699;51.462;6.696;2022-07-18T00:52:50;17.00;99.90
7317;DHT22;3699;51.462;6.696;2022-07-18T00:55:17;16.90;99.90
7317;DHT22;3699;51.462;6.696;2022-07-18T00:57:45;16.90;99.90
7317;DHT22;3699;51.462;6.696;2022-07-18T01:00:13;16.90;99.90
7317;DHT22;3699;51.462;6.696;2022-07-18T01:02:58;16.90;99.90
7317;DHT22;3699;51.462;6.696;2022-07-18T01:05:25;16.80;99.90
7317;DHT22;3699;51.462;6.696;2022-07-18T01:07:52;16.80;99.90
7317;DHT22;3699;51.462;6.696;2022-07-18T01:10:19;16.80;99.90
7317;DHT22;3699;51.462;6.696;2022-07-18T01:12:47;16.80;99.90
7317;DHT22;3699;51.462;6.696;2022-07-18T01:15:14;16.70;99.90
7317;DHT22;3699;51.462;6.696;2022-07-18T01:17:43;16.70;99.90
7317;DHT22;3699;51.462;6.696;2022-07-18T01:20:11;16.70;99.90
7317;DHT22;3699;51.462;6.696;2022-07-18T01:22:39;16.70;99.90
7317;DHT22;3699;51.462;6.696;2022-07-18T01:25:07;16.70;99.90
7317;DHT22;3699;51.462;6.696;2022-07-18T01:27:34;16.60;99.90
7317;DHT22;3699;51.462;6.696;2022-07-18T01:30:01;16.60;99.90
7317;DHT22;3699;51.462;6.696;2022-07-18T01:32:28;16.60;99.90
7317;DHT22;3699;51.462;6.696;2022-07-18T01:34:55;16.60;99.90
7317;DHT22;3699;51.462;6.696;2022-07-18T01:37:22;16.50;99.90
7317;DHT22;3699;51.462;6.696;2022-07-18T01:39:50;16.50;99.90
7317;DHT22;3699;51.462;6.696;2022-07-18T01:42:17;16.50;99.90
7317;DHT22;3699;51.462;6.696;2022-07-18T01:44:44;16.50;99.90
7317;DHT22;3699;51.462;6.696;2022-07-18T01:47:11;16.40;99.90
7317;DHT22;3699;51.462;6.696;2022-07-18T01:49:39;16.40;99.90
7317;DHT22;3699;51.462;6.696;2022-07-18T01:52:06;16.40;99.90
7317;DHT22;3699;51.462;6.696;2022-07-18T01:54:34;16.40;99.90
7317;DHT22;3699;51.462;6.696;2022-07-18T01:57:04;16.30;99.90
7317;DHT22;3699;51.462;6.696;2022-07-18T01:59:31;16.30;99.90
7317;DHT22;3699;51.462;6.696;2022-07-18T02:01:58;16.30;99.90
7317;DHT22;3699;51.462;6.696;2022-07-18T02:04:25;16.30;99.90
7317;DHT22;3699;51.462;6.696;2022-07-18T02:07:06;16.30;99.90
7317;DHT22;3699;51.462;6.696;2022-07-18T02:09:33;16.20;99.90
7317;DHT22;3699;51.462;6.696;2022-07-18T02:12:00;16.30;99.90
7317;DHT22;3699;51.462;6.696;2022-07-18T02:14:28;16.20;99.90
7317;DHT22;3699;51.462;6.696;2022-07-18T02:16:55;16.20;99.90
7317;DHT22;3699;51.462;6.696;2022-07-18T02:19:22;16.20;99.90
7317;DHT22;3699;51.462;6.696;2022-07-18T02:21:49;16.10;99.90
7317;DHT22;3699;51.462;6.696;2022-07-18T02:24:16;16.10;99.90
7317;DHT22;3699;51.462;6.696;2022-07-18T02:26:43;16.00;99.90
7317;DHT22;3699;51.462;6.696;2022-07-18T02:29:10;16.00;99.90
7317;DHT22;3699;51.462;6.696;2022-07-18T02:31:38;16.00;99.90
7317;DHT22;3699;51.462;6.696;2022-07-18T02:34:05;16.00;99.90
7317;DHT22;3699;51.462;6.696;2022-07-18T02:36:35;15.90;99.90
7317;DHT22;3699;51.462;6.696;2022-07-18T02:39:03;15.90;99.90
7317;DHT22;3699;51.462;6.696;2022-07-18T02:41:30;15.90;99.90
7317;DHT22;3699;51.462;6.696;2022-07-18T02:43:56;15.80;99.90
7317;DHT22;3699;51.462;6.696;2022-07-18T02:46:23;15.80;99.90
7317;DHT22;3699;51.462;6.696;2022-07-18T02:48:52;15.80;99.90
7317;DHT22;3699;51.462;6.696;2022-07-18T02:51:19;15.80;99.90
7317;DHT22;3699;51.462;6.696;2022-07-18T02:53:46;15.80;99.90
7317;DHT22;3699;51.462;6.696;2022-07-18T02:56:12;15.70;99.90
7317;DHT22;3699;51.462;6.696;2022-07-18T02:58:39;15.70;99.90
7317;DHT22;3699;51.462;6.696;2022-07-18T03:01:07;15.70;99.90
7317;DHT22;3699;51.462;6.696;2022-07-18T03:03:33;15.70;99.90
7317;DHT22;3699;51.462;6.696;2022-07-18T03:06:02;15.60;99.90
7317;DHT22;3699;51.462;6.696;2022-07-18T03:08:29;15.60;99.90
7317;DHT22;3699;51.462;6.696;2022-07-18T03:10:56;15.60;99.90
7317;DHT22;3699;51.462;6.696;2022-07-18T03:13:22;15.60;99.90
7317;DHT22;3699;51.462;6.696;2022-07-18T03:15:49;15.50;99.90
7317;DHT22;3699;51.462;6.696;2022-07-18T03:18:16;15.50;99.90
7317;DHT22;3699;51.462;6.696;2022-07-18T03:20:43;15.50;99.90
7317;DHT22;3699;51.462;6.696;2022-07-18T03:23:11;15.50;99.90
7317;DHT22;3699;51.462;6.696;2022-07-18T03:25:38;15.50;99.90
7317;DHT22;3699;51.462;6.696;2022-07-18T03:28:05;15.50;99.90
7317;DHT22;3699;51.462;6.696;2022-07-18T03:30:32;15.40;99.90
7317;DHT22;3699;51.462;6.696;2022-07-18T03:32:59;15.40;99.90
7317;DHT22;3699;51.462;6.696;2022-07-18T03:35:26;15.40;99.90
7317;DHT22;3699;51.462;6.696;2022-07-18T03:37:53;15.40;99.90
7317;DHT22;3699;51.462;6.696;2022-07-18T03:40:21;15.40;99.90
7317;DHT22;3699;51.462;6.696;2022-07-18T03:42:49;15.40;99.90
7317;DHT22;3699;51.462;6.696;2022-07-18T03:45:16;15.40;99.90
7317;DHT22;3699;51.462;6.696;2022-07-18T03:47:42;15.40;99.90
7317;DHT22;3699;51.462;6.696;2022-07-18T03:50:15;15.40;99.90
7317;DHT22;3699;51.462;6.696;2022-07-18T03:52:42;15.40;99.90
7317;DHT22;3699;51.462;6.696;2022-07-18T03:55:09;15.40;99.90
7317;DHT22;3699;51.462;6.696;2022-07-18T03:57:37;15.50;99.90
7317;DHT22;3699;51.462;6.696;2022-07-18T04:00:06;15.50;99.90
7317;DHT22;3699;51.462;6.696;2022-07-18T04:02:38;15.50;99.90
7317;DHT22;3699;51.462;6.696;2022-07-18T04:05:06;15.60;99.90
7317;DHT22;3699;51.462;6.696;2022-07-18T04:07:33;15.60;99.90
7317;DHT22;3699;51.462;6.696;2022-07-18T04:10:00;15.60;99.90
7317;DHT22;3699;51.462;6.696;2022-07-18T04:12:27;15.70;99.90
7317;DHT22;3699;51.462;6.696;2022-07-18T04:14:55;15.70;99.90
7317;DHT22;3699;51.462;6.696;2022-07-18T04:17:22;15.70;99.90
7317;DHT22;3699;51.462;6.696;2022-07-18T04:19:49;15.80;99.90
7317;DHT22;3699;51.462;6.696;2022-07-18T04:22:16;15.80;99.90
7317;DHT22;3699;51.462;6.696;2022-07-18T04:24:43;15.90;99.90
7317;DHT22;3699;51.462;6.696;2022-07-18T04:27:10;16.00;99.90
7317;DHT22;3699;51.462;6.696;2022-07-18T04:29:37;16.20;99.90
7317;DHT22;3699;51.462;6.696;2022-07-18T04:32:06;16.50;99.90
7317;DHT22;3699;51.462;6.696;2022-07-18T04:34:33;16.80;99.90
7317;DHT22;3699;51.462;6.696;2022-07-18T04:36:59;17.00;99.90
7317;DHT22;3699;51.462;6.696;2022-07-18T04:39:26;17.20;99.90
7317;DHT22;3699;51.462;6.696;2022-07-18T04:41:53;17.40;99.90
7317;DHT22;3699;51.462;6.696;2022-07-18T04:44:20;17.50;99.90
7317;DHT22;3699;51.462;6.696;2022-07-18T04:46:47;17.60;99.90
7317;DHT22;3699;51.462;6.696;2022-07-18T04:49:16;17.70;99.90
7317;DHT22;3699;51.462;6.696;2022-07-18T04:51:42;18.00;99.90
7317;DHT22;3699;51.462;6.696;2022-07-18T04:54:09;18.30;99.90
7317;DHT22;3699;51.462;6.696;2022-07-18T04:56:37;18.70;99.90
7317;DHT22;3699;51.462;6.696;2022-07-18T04:59:04;19.00;99.90
7317;DHT22;3699;51.462;6.696;2022-07-18T05:01:31;19.30;99.90
7317;DHT22;3699;51.462;6.696;2022-07-18T05:04:00;19.70;99.90
7317;DHT22;3699;51.462;6.696;2022-07-18T05:06:28;20.20;99.90
7317;DHT22;3699;51.462;6.696;2022-07-18T05:08:55;20.60;99.90
7317;DHT22;3699;51.462;6.696;2022-07-18T05:11:22;20.90;99.90
7317;DHT22;3699;51.462;6.696;2022-07-18T05:13:49;21.10;99.90
7317;DHT22;3699;51.462;6.696;2022-07-18T05:16:15;21.40;99.90
7317;DHT22;3699;51.462;6.696;2022-07-18T05:18:42;21.50;99.90
7317;DHT22;3699;51.462;6.696;2022-07-18T05:21:09;21.80;99.90
7317;DHT22;3699;51.462;6.696;2022-07-18T05:23:37;22.10;99.90
7317;DHT22;3699;51.462;6.696;2022-07-18T05:26:04;22.50;99.90
7317;DHT22;3699;51.462;6.696;2022-07-18T05:28:31;22.90;99.90
7317;DHT22;3699;51.462;6.696;2022-07-18T05:31:04;23.30;99.80
7317;DHT22;3699;51.462;6.696;2022-07-18T05:33:31;23.70;92.20
7317;DHT22;3699;51.462;6.696;2022-07-18T05:35:58;24.00;81.20
7317;DHT22;3699;51.462;6.696;2022-07-18T05:38:25;24.20;80.00
7317;DHT22;3699;51.462;6.696;2022-07-18T05:40:53;24.60;77.50
7317;DHT22;3699;51.462;6.696;2022-07-18T05:43:20;24.80;74.70
7317;DHT22;3699;51.462;6.696;2022-07-18T05:45:47;25.20;65.30
7317;DHT22;3699;51.462;6.696;2022-07-18T05:48:13;25.40;62.00
7317;DHT22;3699;51.462;6.696;2022-07-18T05:50:40;25.70;59.90
7317;DHT22;3699;51.462;6.696;2022-07-18T05:53:07;25.90;58.50
7317;DHT22;3699;51.462;6.696;2022-07-18T05:55:34;26.20;53.80
7317;DHT22;3699;51.462;6.696;2022-07-18T05:58:03;26.40;52.50
7317;DHT22;3699;51.462;6.696;2022-07-18T06:00:30;26.60;52.20
7317;DHT22;3699;51.462;6.696;2022-07-18T06:02:57;26.70;50.90
7317;DHT22;3699;51.462;6.696;2022-07-18T06:05:24;26.90;51.60
7317;DHT22;3699;51.462;6.696;2022-07-18T06:07:51;27.10;51.70
7317;DHT22;3699;51.462;6.696;2022-07-18T06:10:18;27.20;51.00
7317;DHT22;3699;51.462;6.696;2022-07-18T06:12:45;27.40;48.20
7317;DHT22;3699;51.462;6.696;2022-07-18T06:15:14;27.60;48.30
7317;DHT22;3699;51.462;6.696;2022-07-18T06:17:41;27.60;47.60
7317;DHT22;3699;51.462;6.696;2022-07-18T06:20:08;27.70;47.70
7317;DHT22;3699;51.462;6.696;2022-07-18T06:22:36;28.00;48.20
7317;DHT22;3699;51.462;6.696;2022-07-18T06:25:04;28.30;49.10
7317;DHT22;3699;51.462;6.696;2022-07-18T06:27:31;28.60;47.20
7317;DHT22;3699;51.462;6.696;2022-07-18T06:29:58;28.90;45.70
7317;DHT22;3699;51.462;6.696;2022-07-18T06:32:26;29.10;43.50
7317;DHT22;3699;51.462;6.696;2022-07-18T06:34:53;29.30;44.60
7317;DHT22;3699;51.462;6.696;2022-07-18T06:37:20;29.30;43.60
7317;DHT22;3699;51.462;6.696;2022-07-18T06:39:47;29.50;41.70
7317;DHT22;3699;51.462;6.696;2022-07-18T06:42:14;29.30;41.90
7317;DHT22;3699;51.462;6.696;2022-07-18T06:44:41;29.20;42.90
7317;DHT22;3699;51.462;6.696;2022-07-18T06:47:08;29.30;41.70
7317;DHT22;3699;51.462;6.696;2022-07-18T06:49:36;29.60;42.60
7317;DHT22;3699;51.462;6.696;2022-07-18T06:52:03;29.80;41.90
7317;DHT22;3699;51.462;6.696;2022-07-18T06:54:30;30.00;42.10
7317;DHT22;3699;51.462;6.696;2022-07-18T06:56:59;30.30;40.50
7317;DHT22;3699;51.462;6.696;2022-07-18T06:59:25;30.60;40.50
7317;DHT22;3699;51.462;6.696;2022-07-18T07:01:52;30.80;40.60
7317;DHT22;3699;51.462;6.696;2022-07-18T07:04:19;31.10;41.00
7317;DHT22;3699;51.462;6.696;2022-07-18T07:06:47;31.50;39.30
7317;DHT22;3699;51.462;6.696;2022-07-18T07:09:14;31.60;38.80
7317;DHT22;3699;51.462;6.696;2022-07-18T07:11:41;31.60;38.60
7317;DHT22;3699;51.462;6.696;2022-07-18T07:14:08;31.60;38.20
7317;DHT22;3699;51.462;6.696;2022-07-18T07:16:35;31.60;36.90
7317;DHT22;3699;51.462;6.696;2022-07-18T07:19:02;31.70;37.90
7317;DHT22;3699;51.462;6.696;2022-07-18T07:21:29;31.70;37.30
7317;DHT22;3699;51.462;6.696;2022-07-18T07:23:57;31.70;38.30
7317;DHT22;3699;51.462;6.696;2022-07-18T07:26:23;31.90;36.10
7317;DHT22;3699;51.462;6.696;2022-07-18T07:28:50;31.90;37.40
7317;DHT22;3699;51.462;6.696;2022-07-18T07:31:17;31.90;36.80
7317;DHT22;3699;51.462;6.696;2022-07-18T07:33:44;31.80;36.90
7317;DHT22;3699;51.462;6.696;2022-07-18T07:36:12;31.80;35.30
7317;DHT22;3699;51.462;6.696;2022-07-18T07:38:39;31.80;37.60
7317;DHT22;3699;51.462;6.696;2022-07-18T07:41:07;31.70;36.60
7317;DHT22;3699;51.462;6.696;2022-07-18T07:43:34;31.60;37.40
7317;DHT22;3699;51.462;6.696;2022-07-18T07:46:01;31.50;39.00
7317;DHT22;3699;51.462;6.696;2022-07-18T07:48:28;31.50;38.40
7317;DHT22;3699;51.462;6.696;2022-07-18T07:50:55;31.50;36.90
7317;DHT22;3699;51.462;6.696;2022-07-18T07:53:22;31.40;37.40
7317;DHT22;3699;51.462;6.696;2022-07-18T07:55:49;31.40;37.00
7317;DHT22;3699;51.462;6.696;2022-07-18T07:58:17;31.30;37.20
7317;DHT22;3699;51.462;6.696;2022-07-18T08:00:44;31.30;37.60
7317;DHT22;3699;51.462;6.696;2022-07-18T08:03:11;31.40;36.60
7317;DHT22;3699;51.462;6.696;2022-07-18T08:05:44;31.40;37.70
7317;DHT22;3699;51.462;6.696;2022-07-18T08:08:11;31.50;36.20
7317;DHT22;3699;51.462;6.696;2022-07-18T08:10:38;31.70;36.00
7317;DHT22;3699;51.462;6.696;2022-07-18T08:13:04;31.80;37.40
7317;DHT22;3699;51.462;6.696;2022-07-18T08:15:33;31.80;37.50
7317;DHT22;3699;51.462;6.696;2022-07-18T08:18:01;32.00;37.80
7317;DHT22;3699;51.462;6.696;2022-07-18T08:20:28;32.20;36.60
7317;DHT22;3699;51.462;6.696;2022-07-18T08:22:56;32.30;35.50
7317;DHT22;3699;51.462;6.696;2022-07-18T08:25:24;32.50;37.80
7317;DHT22;3699;51.462;6.696;2022-07-18T08:27:51;32.60;36.00
7317;DHT22;3699;51.462;6.696;2022-07-18T08:30:18;32.70;36.40
7317;DHT22;3699;51.462;6.696;2022-07-18T08:32:47;32.80;35.70
7317;DHT22;3699;51.462;6.696;2022-07-18T08:35:14;32.90;35.90
7317;DHT22;3699;51.462;6.696;2022-07-18T08:37:41;33.10;36.30
7317;DHT22;3699;51.462;6.696;2022-07-18T08:40:09;33.10;36.00
7317;DHT22;3699;51.462;6.696;2022-07-18T08:42:36;33.10;34.20
7317;DHT22;3699;51.462;6.696;2022-07-18T08:45:04;33.30;34.80
7317;DHT22;3699;51.462;6.696;2022-07-18T08:47:32;33.40;35.20
7317;DHT22;3699;51.462;6.696;2022-07-18T08:50:01;33.60;35.50
7317;DHT22;3699;51.462;6.696;2022-07-18T08:52:29;33.70;34.40
7317;DHT22;3699;51.462;6.696;2022-07-18T08:54:56;33.80;34.90
7317;DHT22;3699;51.462;6.696;2022-07-18T08:57:23;34.00;34.60
7317;DHT22;3699;51.462;6.696;2022-07-18T08:59:50;34.00;32.50
7317;DHT22;3699;51.462;6.696;2022-07-18T09:02:17;34.10;34.00
7317;DHT22;3699;51.462;6.696;2022-07-18T09:04:45;34.10;34.20
7317;DHT22;3699;51.462;6.696;2022-07-18T09:07:25;34.10;33.60
7317;DHT22;3699;51.462;6.696;2022-07-18T09:09:53;34.10;33.90
7317;DHT22;3699;51.462;6.696;2022-07-18T09:12:21;34.10;32.30
7317;DHT22;3699;51.462;6.696;2022-07-18T09:14:48;34.30;34.20
7317;DHT22;3699;51.462;6.696;2022-07-18T09:17:19;34.40;32.60
7317;DHT22;3699;51.462;6.696;2022-07-18T09:20:03;34.50;33.80
7317;DHT22;3699;51.462;6.696;2022-07-18T09:22:32;34.50;31.90
7317;DHT22;3699;51.462;6.696;2022-07-18T09:25:03;34.60;34.90
7317;DHT22;3699;51.462;6.696;2022-07-18T09:27:33;34.80;32.20
7317;DHT22;3699;51.462;6.696;2022-07-18T09:33:08;34.90;34.20
7317;DHT22;3699;51.462;6.696;2022-07-18T09:35:38;35.00;31.60
7317;DHT22;3699;51.462;6.696;2022-07-18T09:38:11;34.90;31.10
7317;DHT22;3699;51.462;6.696;2022-07-18T09:40:40;34.90;30.00
7317;DHT22;3699;51.462;6.696;2022-07-18T09:43:08;34.80;31.30
7317;DHT22;3699;51.462;6.696;2022-07-18T09:45:36;34.80;32.60
7317;DHT22;3699;51.462;6.696;2022-07-18T09:48:05;34.90;31.80
7317;DHT22;3699;51.462;6.696;2022-07-18T09:50:34;34.90;29.80
7317;DHT22;3699;51.462;6.696;2022-07-18T09:53:05;35.00;29.80
7317;DHT22;3699;51.462;6.696;2022-07-18T09:55:35;35.00;28.60
7317;DHT22;3699;51.462;6.696;2022-07-18T09:58:05;35.00;30.20
7317;DHT22;3699;51.462;6.696;2022-07-18T10:00:33;35.00;31.20
7317;DHT22;3699;51.462;6.696;2022-07-18T10:03:02;35.00;29.50
7317;DHT22;3699;51.462;6.696;2022-07-18T10:05:31;35.20;30.50
7317;DHT22;3699;51.462;6.696;2022-07-18T10:07:59;35.20;28.30
7317;DHT22;3699;51.462;6.696;2022-07-18T10:10:27;35.20;29.60
7317;DHT22;3699;51.462;6.696;2022-07-18T10:12:58;35.30;29.80
7317;DHT22;3699;51.462;6.696;2022-07-18T10:15:27;35.40;28.70
7317;DHT22;3699;51.462;6.696;2022-07-18T10:17:54;35.50;28.40
7317;DHT22;3699;51.462;6.696;2022-07-18T10:20:41;35.50;28.70
7317;DHT22;3699;51.462;6.696;2022-07-18T10:23:16;35.50;28.40
7317;DHT22;3699;51.462;6.696;2022-07-18T10:25:44;35.40;28.10
7317;DHT22;3699;51.462;6.696;2022-07-18T10:28:13;35.40;26.70
7317;DHT22;3699;51.462;6.696;2022-07-18T10:30:44;35.40;27.00
7317;DHT22;3699;51.462;6.696;2022-07-18T10:33:40;35.40;29.50
7317;DHT22;3699;51.462;6.696;2022-07-18T10:36:09;35.30;27.10
7317;DHT22;3699;51.462;6.696;2022-07-18T10:38:37;35.20;27.20
7317;DHT22;3699;51.462;6.696;2022-07-18T10:41:06;35.30;28.40
7317;DHT22;3699;51.462;6.696;2022-07-18T10:43:38;35.20;25.80
7317;DHT22;3699;51.462;6.696;2022-07-18T10:46:07;35.20;27.20
7317;DHT22;3699;51.462;6.696;2022-07-18T10:48:55;35.10;27.90
7317;DHT22;3699;51.462;6.696;2022-07-18T10:51:33;35.10;28.80
7317;DHT22;3699;51.462;6.696;2022-07-18T10:54:10;35.00;28.10
7317;DHT22;3699;51.462;6.696;2022-07-18T10:57:09;35.10;29.20
7317;DHT22;3699;51.462;6.696;2022-07-18T10:59:59;35.20;29.20
7317;DHT22;3699;51.462;6.696;2022-07-18T11:02:35;35.10;27.40
7317;DHT22;3699;51.462;6.696;2022-07-18T11:05:03;35.10;27.40
7317;DHT22;3699;51.462;6.696;2022-07-18T11:08:18;35.20;28.00
7317;DHT22;3699;51.462;6.696;2022-07-18T11:11:19;35.10;27.00
7317;DHT22;3699;51.462;6.696;2022-07-18T11:13:46;35.20;28.80
7317;DHT22;3699;51.462;6.696;2022-07-18T11:16:19;35.20;28.90
7317;DHT22;3699;51.462;6.696;2022-07-18T11:19:15;35.20;27.60
7317;DHT22;3699;51.462;6.696;2022-07-18T11:21:44;35.20;28.20
7317;DHT22;3699;51.462;6.696;2022-07-18T11:24:12;35.10;27.70
7317;DHT22;3699;51.462;6.696;2022-07-18T11:26:43;35.10;27.80
7317;DHT22;3699;51.462;6.696;2022-07-18T11:29:13;35.20;28.30
7317;DHT22;3699;51.462;6.696;2022-07-18T11:31:46;35.40;28.50
7317;DHT22;3699;51.462;6.696;2022-07-18T11:34:14;35.50;27.00
7317;DHT22;3699;51.462;6.696;2022-07-18T11:36:43;35.40;25.60
7317;DHT22;3699;51.462;6.696;2022-07-18T11:39:11;35.20;28.90
7317;DHT22;3699;51.462;6.696;2022-07-18T11:41:40;34.90;28.70
7317;DHT22;3699;51.462;6.696;2022-07-18T11:44:16;34.70;28.80
7317;DHT22;3699;51.462;6.696;2022-07-18T11:46:48;34.50;28.00
7317;DHT22;3699;51.462;6.696;2022-07-18T11:49:16;34.40;27.60
7317;DHT22;3699;51.462;6.696;2022-07-18T11:51:44;34.40;27.10
7317;DHT22;3699;51.462;6.696;2022-07-18T11:54:12;34.40;28.10
7317;DHT22;3699;51.462;6.696;2022-07-18T11:56:49;34.40;29.00
7317;DHT22;3699;51.462;6.696;2022-07-18T11:59:17;34.40;29.50
7317;DHT22;3699;51.462;6.696;2022-07-18T12:01:44;34.40;26.20
7317;DHT22;3699;51.462;6.696;2022-07-18T12:04:18;34.40;26.60
7317;DHT22;3699;51.462;6.696;2022-07-18T12:09:29;34.10;28.70
7317;DHT22;3699;51.462;6.696;2022-07-18T12:11:56;33.90;29.10
7317;DHT22;3699;51.462;6.696;2022-07-18T12:14:33;33.70;27.80
7317;DHT22;3699;51.462;6.696;2022-07-18T12:17:00;33.50;29.00
7317;DHT22;3699;51.462;6.696;2022-07-18T12:19:34;33.60;30.60
7317;DHT22;3699;51.462;6.696;2022-07-18T12:22:06;33.80;28.30
7317;DHT22;3699;51.462;6.696;2022-07-18T12:24:36;34.00;28.10
7317;DHT22;3699;51.462;6.696;2022-07-18T12:27:15;34.10;30.00
7317;DHT22;3699;51.462;6.696;2022-07-18T12:32:44;34.60;29.70
7317;DHT22;3699;51.462;6.696;2022-07-18T12:35:18;34.80;30.00
7317;DHT22;3699;51.462;6.696;2022-07-18T12:37:54;35.00;27.20
7317;DHT22;3699;51.462;6.696;2022-07-18T12:40:23;35.00;28.00
7317;DHT22;3699;51.462;6.696;2022-07-18T12:43:02;35.10;26.70
7317;DHT22;3699;51.462;6.696;2022-07-18T12:45:29;35.00;26.80
7317;DHT22;3699;51.462;6.696;2022-07-18T12:47:56;35.00;27.80
7317;DHT22;3699;51.462;6.696;2022-07-18T12:50:24;35.10;29.10
7317;DHT22;3699;51.462;6.696;2022-07-18T12:52:51;35.10;28.50
7317;DHT22;3699;51.462;6.696;2022-07-18T12:55:18;35.20;28.80
7317;DHT22;3699;51.462;6.696;2022-07-18T12:57:46;35.30;25.80
7317;DHT22;3699;51.462;6.696;2022-07-18T13:00:13;35.30;28.00
7317;DHT22;3699;51.462;6.696;2022-07-18T13:02:42;35.30;25.70
7317;DHT22;3699;51.462;6.696;2022-07-18T13:05:09;35.20;26.50
7317;DHT22;3699;51.462;6.696;2022-07-18T13:07:37;35.10;27.60
7317;DHT22;3699;51.462;6.696;2022-07-18T13:10:05;35.10;27.50
7317;DHT22;3699;51.462;6.696;2022-07-18T13:12:33;35.20;29.20
7317;DHT22;3699;51.462;6.696;2022-07-18T13:15:00;35.30;29.70
7317;DHT22;3699;51.462;6.696;2022-07-18T13:17:27;35.40;28.50
7317;DHT22;3699;51.462;6.696;2022-07-18T13:19:54;35.40;28.70
7317;DHT22;3699;51.462;6.696;2022-07-18T13:22:21;35.50;28.20
7317;DHT22;3699;51.462;6.696;2022-07-18T13:24:49;35.40;27.30
7317;DHT22;3699;51.462;6.696;2022-07-18T13:27:16;35.50;27.90
7317;DHT22;3699;51.462;6.696;2022-07-18T13:29:45;35.50;28.00
7317;DHT22;3699;51.462;6.696;2022-07-18T13:32:12;35.60;28.70
7317;DHT22;3699;51.462;6.696;2022-07-18T13:34:39;35.60;27.90
7317;DHT22;3699;51.462;6.696;2022-07-18T13:37:06;35.70;28.60
7317;DHT22;3699;51.462;6.696;2022-07-18T13:39:33;35.80;28.30
7317;DHT22;3699;51.462;6.696;2022-07-18T13:42:01;35.80;26.60
7317;DHT22;3699;51.462;6.696;2022-07-18T13:44:30;35.80;28.40
7317;DHT22;3699;51.462;6.696;2022-07-18T13:46:57;36.00;27.40
7317;DHT22;3699;51.462;6.696;2022-07-18T13:49:30;36.00;26.50
7317;DHT22;3699;51.462;6.696;2022-07-18T13:51:57;36.00;26.60
7317;DHT22;3699;51.462;6.696;2022-07-18T13:54:24;36.10;27.60
7317;DHT22;3699;51.462;6.696;2022-07-18T13:56:51;36.00;26.50
7317;DHT22;3699;51.462;6.696;2022-07-18T13:59:19;36.10;27.00
7317;DHT22;3699;51.462;6.696;2022-07-18T14:01:46;36.10;26.70
7317;DHT22;3699;51.462;6.696;2022-07-18T14:04:15;36.20;26.90
7317;DHT22;3699;51.462;6.696;2022-07-18T14:06:41;36.40;26.30
7317;DHT22;3699;51.462;6.696;2022-07-18T14:09:08;36.40;26.50
7317;DHT22;3699;51.462;6.696;2022-07-18T14:11:36;36.40;25.40
7317;DHT22;3699;51.462;6.696;2022-07-18T14:14:03;36.50;25.70
7317;DHT22;3699;51.462;6.696;2022-07-18T14:16:32;36.40;24.50
7317;DHT22;3699;51.462;6.696;2022-07-18T14:18:59;36.50;24.70
7317;DHT22;3699;51.462;6.696;2022-07-18T14:21:26;36.40;24.90
7317;DHT22;3699;51.462;6.696;2022-07-18T14:23:53;36.50;25.70
7317;DHT22;3699;51.462;6.696;2022-07-18T14:26:20;36.60;26.00
7317;DHT22;3699;51.462;6.696;2022-07-18T14:28:47;36.60;25.50
7317;DHT22;3699;51.462;6.696;2022-07-18T14:31:14;36.60;26.10
7317;DHT22;3699;51.462;6.696;2022-07-18T14:33:45;36.60;26.50
7317;DHT22;3699;51.462;6.696;2022-07-18T14:36:13;36.60;25.60
7317;DHT22;3699;51.462;6.696;2022-07-18T14:38:40;36.40;23.80
7317;DHT22;3699;51.462;6.696;2022-07-18T14:41:08;36.30;26.10
7317;DHT22;3699;51.462;6.696;2022-07-18T14:43:34;36.40;26.80
7317;DHT22;3699;51.462;6.696;2022-07-18T14:46:01;36.30;26.60
7317;DHT22;3699;51.462;6.696;2022-07-18T14:48:28;36.20;25.60
7317;DHT22;3699;51.462;6.696;2022-07-18T14:51:00;36.10;26.10
7317;DHT22;3699;51.462;6.696;2022-07-18T14:53:27;36.10;26.00
7317;DHT22;3699;51.462;6.696;2022-07-18T14:55:54;36.00;26.20
7317;DHT22;3699;51.462;6.696;2022-07-18T14:58:20;35.80;26.90
7317;DHT22;3699;51.462;6.696;2022-07-18T15:00:47;35.70;26.40
7317;DHT22;3699;51.462;6.696;2022-07-18T15:03:14;35.60;26.50
7317;DHT22;3699;51.462;6.696;2022-07-18T15:05:41;35.50;25.10
7317;DHT22;3699;51.462;6.696;2022-07-18T15:08:09;35.40;27.50
7317;DHT22;3699;51.462;6.696;2022-07-18T15:10:36;35.30;27.30
7317;DHT22;3699;51.462;6.696;2022-07-18T15:13:03;35.20;26.80
7317;DHT22;3699;51.462;6.696;2022-07-18T15:15:32;35.20;28.00
7317;DHT22;3699;51.462;6.696;2022-07-18T15:17:58;35.10;26.50
7317;DHT22;3699;51.462;6.696;2022-07-18T15:20:25;35.10;25.50
7317;DHT22;3699;51.462;6.696;2022-07-18T15:22:53;35.00;26.50
7317;DHT22;3699;51.462;6.696;2022-07-18T15:25:22;34.90;27.50
7317;DHT22;3699;51.462;6.696;2022-07-18T15:27:48;34.80;27.30
7317;DHT22;3699;51.462;6.696;2022-07-18T15:30:17;34.70;26.00
7317;DHT22;3699;51.462;6.696;2022-07-18T15:32:44;34.60;26.10
7317;DHT22;3699;51.462;6.696;2022-07-18T15:35:11;34.60;25.40
7317;DHT22;3699;51.462;6.696;2022-07-18T15:37:38;34.40;25.40
7317;DHT22;3699;51.462;6.696;2022-07-18T15:40:06;34.30;25.30
7317;DHT22;3699;51.462;6.696;2022-07-18T15:42:34;34.30;26.00
7317;DHT22;3699;51.462;6.696;2022-07-18T15:45:01;34.30;26.20
7317;DHT22;3699;51.462;6.696;2022-07-18T15:47:28;34.30;25.90
7317;DHT22;3699;51.462;6.696;2022-07-18T15:49:55;34.30;26.80
7317;DHT22;3699;51.462;6.696;2022-07-18T15:52:22;34.30;27.40
7317;DHT22;3699;51.462;6.696;2022-07-18T15:54:48;34.30;27.60
7317;DHT22;3699;51.462;6.696;2022-07-18T15:57:15;34.30;27.30
7317;DHT22;3699;51.462;6.696;2022-07-18T15:59:44;34.30;27.80
7317;DHT22;3699;51.462;6.696;2022-07-18T16:02:11;34.30;26.80
7317;DHT22;3699;51.462;6.696;2022-07-18T16:04:38;34.30;25.30
7317;DHT22;3699;51.462;6.696;2022-07-18T16:07:08;34.30;25.50
7317;DHT22;3699;51.462;6.696;2022-07-18T16:09:35;34.30;26.00
7317;DHT22;3699;51.462;6.696;2022-07-18T16:12:04;34.30;26.20
7317;DHT22;3699;51.462;6.696;2022-07-18T16:14:32;34.30;26.00
7317;DHT22;3699;51.462;6.696;2022-07-18T16:17:02;34.30;24.80
7317;DHT22;3699;51.462;6.696;2022-07-18T16:19:29;34.20;25.40